Impacts METAR Board INFO
IDs:

KLGA - New York/La Guardia, NY, US

Updated at: 0134 UTC 20 Feb 2018
Potential Impact None Slight Moderate High
Time19/13Z 19/14Z 19/15Z 19/16Z 19/17Z 19/18Z 19/19Z 19/20Z 19/21Z 19/22Z 19/23Z 20/00Z 20/01Z
VIS10 10 10 10 10 10 10 10 10 10 10 10 10
CIG200 -- -- 110 49 49 49 34 28 26 18 28 18
CoverBKNSCTSCTBKNOVCOVCOVCOVCOVCOVCOVCOVCOVC
FltCatVFRVFRVFRVFRVFRVFRVFRVFRMVFRMVFRMVFRMVFRMVFR
WX---------------------RA---RA
WDir160170170180180180180180200160180160180
WSpd5 8 12 10 11 11 8 7 6 7 5 5 4
WGst-- -- 17 17 -- 19 -- -- -- -- -- -- --
Raw hourly METARs
KLGA 191251Z 16005KT 10SM BKN200 BKN250 04/02 A3052 RMK AO2 SLP334 T00440022 $
KLGA 191351Z 17008KT 10SM FEW070 SCT200 SCT250 06/01 A3052 RMK AO2 SLP336 T00610006 $
KLGA 191451Z 17012G17KT 10SM FEW035 FEW100 SCT150 SCT200 07/01 A3050 RMK AO2 SLP329 T00720006 58005 $
KLGA 191551Z 18010G17KT 10SM FEW035 SCT075 BKN110 BKN180 08/01 A3050 RMK AO2 SLP328 T00830011 $
KLGA 191651Z 18011KT 10SM FEW035 OVC049 08/02 A3047 RMK AO2 SLP317 T00830022 $
KLGA 191751Z 18011G19KT 10SM FEW035 OVC049 09/03 A3044 RMK AO2 SLP306 T00890028 10089 20039 58023 $
KLGA 191851Z 18008KT 10SM FEW035 OVC049 09/03 A3040 RMK AO2 SLP293 T00890033 $
KLGA 191951Z 18007KT 10SM OVC034 09/04 A3039 RMK AO2 SLP290 T00890044 $
KLGA 192051Z 20006KT 10SM OVC028 09/05 A3039 RMK AO2 SLP289 T00940050 56004 $
KLGA 192151Z 16007KT 130V190 10SM BKN026 OVC035 09/06 A3036 RMK AO2 SLP279 T00890056 $
KLGA 192251Z 18005KT 10SM -RA OVC018 09/06 A3036 RMK AO2 RAB23 SLP280 P0000 T00890061 $
KLGA 192351Z COR 16005KT 10SM OVC028 09/07 A3034 RMK AO2 RAE32 SLP275 P0001 60001 T00890067 10094 20083 56014 $
KLGA 200051Z 18004KT 10SM -RA OVC018 08/07 A3035 RMK AO2 SLP276 RAB28 P0000 T00830067 $